• Join FlightAware (Why Join?)
  • Login
  • US Flag 
12:34AM EST


 

Airport Tracker/Info


-or-


 

Live Flight TrackerFlight Track Log ✈ DAL1638 ✈ 01-Jul-2013 ✈ KATL - KDCA

Flight Track Log - Related Links

Times and Time Zones

All times are in EDT time to prevent confusion due to time zone crossing. See the DAL1638 flight status page for this flight to view local times or setup timezone preferences in your user account.

Time Position Orientation Groundspeed Altitude Reporting Facility
EDT Latitude Longitude Course Direction KTS MPH feet Rate Location/Type
06:50PM 33.6333 -84.5000 53° Northeast 216 249 3,800  Level Atlanta TRACON
06:51PM 33.5833 -84.5667 228° Southwest 267 307 7,200 3,122 Climbing Atlanta TRACON
06:52PM 33.7494 -83.9789 54° Northeast  Level FlightAware Approximate
06:52PM 33.4861 -84.5794 186° South 287 330 11,500  Level Atlanta Center
06:53PM 33.8247 -83.8535 54° Northeast  Level FlightAware Approximate
06:53PM 33.4658 -84.4869 105° East 233 268 14,000  Level Atlanta Center
06:54PM 33.9047 -83.7326 48° Northeast  Level FlightAware Approximate
06:54PM 33.5267 -84.3853 54° Northeast 246 283 15,300  Level Atlanta Center
06:55PM 33.9832 -83.6100 53° Northeast  Level FlightAware Approximate
06:55PM 33.5875 -84.2831 54° Northeast 324 373 16,600  Level Atlanta Center
06:56PM 33.6564 -84.1411 60° Northeast 407 468 19,100 2,200 Climbing Atlanta Center
06:57PM 33.7086 -84.0039 65° Northeast 442 509 21,000 1,800 Climbing Atlanta Center
06:58PM 33.7608 -83.8589 67° East 462 532 22,700 1,550 Climbing Atlanta Center
06:59PM 33.8147 -83.7089 67° East 479 551 24,100 1,150 Climbing Atlanta Center
07:00PM 33.8725 -83.5433 67° East 479 551 25,000 550 Climbing Atlanta Center
07:01PM 33.9261 -83.3903 67° East 485 558 25,200 850 Climbing Atlanta Center
07:02PM 33.9983 -83.2494 58° Northeast 485 558 26,700 1,500 Climbing Atlanta Center
07:03PM 34.0850 -83.1158 52° Northeast 499 574 28,200 1,700 Climbing Atlanta Center
07:04PM 34.1736 -82.9817 51° Northeast 509 586 30,100 1,400 Climbing Atlanta Center
07:05PM 34.2603 -82.8475 52° Northeast 509 586 31,000 800 Climbing Atlanta Center
07:06PM 34.3444 -82.7131 53° Northeast 504 580 31,700 950 Climbing Atlanta Center
07:07PM 34.4264 -82.5933 50° Northeast 504 580 32,900 650 Climbing Atlanta Center
07:08PM 34.5083 -82.4608 53° Northeast 499 574 33,000 50 Climbing Atlanta Center
07:09PM 34.5942 -82.3281 52° Northeast 499 574 33,000  Level Atlanta Center
07:10PM 34.6800 -82.1922 52° Northeast 494 568 33,000  Level Atlanta Center
07:11PM 34.7656 -82.0589 52° Northeast 494 568 33,000  Level Atlanta Center
07:12PM 34.8589 -81.9100 53° Northeast 494 568 33,000  Level Atlanta Center
07:13PM 34.9422 -81.7761 53° Northeast 494 568 33,000  Level Atlanta Center
07:14PM 35.0292 -81.6417 52° Northeast 502 578 33,000  Level Atlanta Center
07:15PM 35.1122 -81.5047 53° Northeast 496 571 33,000  Level Atlanta Center
07:16PM 35.1947 -81.3675 54° Northeast 496 571 33,000  Level Atlanta Center
07:17PM 35.2792 -81.2300 53° Northeast 491 565 33,000  Level Atlanta Center
07:18PM 35.3636 -81.0922 53° Northeast 496 571 33,000  Level Atlanta Center
07:19PM 35.4481 -80.9539 53° Northeast 502 578 33,000  Level Atlanta Center
07:20PM 35.5319 -80.8181 53° Northeast 502 578 33,000  Level Atlanta Center
07:21PM 35.6161 -80.6819 53° Northeast 495 570 33,000  Level Atlanta Center
07:22PM 35.6997 -80.5456 53° Northeast 495 570 33,000  Level Atlanta Center
07:23PM 35.7814 -80.4117 53° Northeast 495 570 33,000  Level Atlanta Center
07:24PM 35.8650 -80.2747 53° Northeast 495 570 33,000  Level Atlanta Center
07:27PM 36.0508 -79.9697 53° Northeast 487 560 33,000  Level Washington Center
07:28PM 36.1311 -79.8303 54° Northeast 492 566 33,000  Level Washington Center
07:29PM 36.2114 -79.6828 56° Northeast 501 577 33,000  Level Washington Center
07:30PM 36.2911 -79.5450 54° Northeast 501 577 33,000  Level Washington Center
07:31PM 36.3686 -79.4044 56° Northeast 501 577 33,000 -149 Level Washington Center
07:32PM 36.4375 -79.2736 57° Northeast 501 577 32,700 -2,237 Descending Washington Center
07:33PM 36.5275 -79.1228 53° Northeast 501 577 28,600 -3,479 Descending Washington Center
07:34PM 36.6047 -78.9814 56° Northeast 494 568 25,800 -1,770 Descending Washington Center
07:35PM 36.6794 -78.8422 56° Northeast 494 568 25,000 -403 Descending Washington Center
07:36PM 36.7542 -78.7053 56° Northeast 483 556 25,000  Level Washington Center
07:37PM 36.8217 -78.5861 55° Northeast 476 548 25,000 -1,091 Level Washington Center
07:38PM 36.8961 -78.4514 55° Northeast 470 541 22,800 -1,488 Descending Washington Center
07:39PM 36.9681 -78.3161 56° Northeast 470 541 22,000 -397 Descending Washington Center
07:40PM 37.0464 -78.1733 55° Northeast 459 528 22,000  Level Washington Center
07:41PM 37.1092 -78.0608 55° Northeast 454 522 22,000  Level Washington Center
07:42PM 37.1806 -77.9303 56° Northeast 454 522 22,000  Level Washington Center
07:43PM 37.2497 -77.7992 56° Northeast 454 522 22,000  Level Washington Center
07:44PM 37.3292 -77.6761 51° Northeast 459 528 22,000  Level Washington Center
07:45PM 37.4431 -77.6111 24° Northeast 437 503 22,000  Level Washington Center
07:46PM 37.5586 -77.5489 23° Northeast 437 503 22,000 -1,190 Level Washington Center
07:47PM 37.6722 -77.4886 23° Northeast 437 503 19,600 -2,331 Descending Washington Center
07:48PM 37.7817 -77.4311 23° Northeast 432 497 17,300 -2,132 Descending Washington Center
07:49PM 37.8869 -77.3731 24° Northeast 422 486 15,300 -1,831 Descending Washington Center
07:50PM 37.9878 -77.3200 23° Northeast 408 470 13,700 -1,412 Descending Washington Center
07:51PM 38.0886 -77.2669 22° Northeast 395 455 12,500 -1,289 Descending Washington Center
07:52PM 38.1872 -77.2164 22° Northeast 390 449 11,100 -1,271 Descending Washington Center
07:53PM 38.2819 -77.1603 25° Northeast 379 436 10,000 -555 Descending Washington Center
07:54PM 38.3803 -77.1172 19° North 374 430 10,000  Level Washington Center
07:55PM 38.4769 -77.0689 21° North 374 430 10,000 -49 Level Washington Center
07:56PM 38.5814 -77.0444 10° North 374 430 9,900  Descending Washington Center
07:57PM 38.6769 -77.0703 348° North 357 411 10,000 7,613 Climbing Washington Center
07:58PM 38.7583 -77.0639 North 321 369 25,000 -2,033 Climbing Washington Center
07:59PM 38.8286 -77.1158 330° Northwest 287 330 5,900 -10,084 Descending Washington Center
08:00PM 38.8842 -77.1864 315° West 270 311 5,000 -412 Descending Washington Center
08:01PM 38.9269 -77.2433 314° West 253 291 5,000 -504 Level Washington Center
08:02PM 39.0000 -77.2500 356° North 223 257 3,900 -1,008 Descending Potomac TRACON
08:03PM 38.9833 -77.2000 113° Southeast 181 208 3,000 -900 Descending Potomac TRACON